Decoded Metar for YPDN (DARWIN (CIV/MIL) in AUSTRALIA) (IATA:N/A) | Meteo·Mobile Aviation Weather
aviador You're here:

YPDN Decoded Metar

DARWIN (CIV/MIL) in AUSTRALIA
Report Time2018-10-23 11:00:00
UTC Time2018-10-23 11:33:30
Flight Rules vfr VFR
Wind280° at 10 kt
W.Decomp.*RWY 29: 9.8 kt HW 2.1 kt LCW
RWY 36: 1.4 kt HW 9.9 kt LCW
W.Rank280° ranks 9
Current wind is above 280° avg. (7.5)
Visibility9999 m
Phenomena:N/A
Clouds:Few 020 Hf
Broken 400 Hf
Expected CloudBase > 2,000 ft AGL from Temp-Dew spread
Ceiling40,000 ft
Temp30°C (ISA +15)
Dew Point25°C (75% RH)
Heat Index36.3°C
QNH1010 hPa
Density Alt2,356 ft
Elevation98 ft
Report Wrong Elevation
Raw Report
METAR YPDN 231100Z 28010KT 9999 FEW020 BKN400 30/25 Q1010
NOSIG=

Extra information for YPDN:More info

Metar Taf Metar & Taf Last 4 Metars F.Rules Stats Wind Profile Meteogram Temp Stats Airport Information Weather charts Add Link Nearby VenuesMetar ALERT Operation Metar Decoded Social comments